sensor_id;sensor_type;location;lat;lon;timestamp;P1;durP1;ratioP1;P2;durP2;ratioP2
71303;SDS011;59091;47.446;19.148;2023-04-24T00:00:49;9.52;;;6.32;;
71303;SDS011;59091;47.446;19.148;2023-04-24T00:03:16;10.48;;;6.60;;
71303;SDS011;59091;47.446;19.148;2023-04-24T00:05:41;13.77;;;6.57;;
71303;SDS011;59091;47.446;19.148;2023-04-24T00:08:07;14.27;;;7.32;;
71303;SDS011;59091;47.446;19.148;2023-04-24T00:10:33;12.02;;;6.68;;
71303;SDS011;59091;47.446;19.148;2023-04-24T00:12:58;12.50;;;6.93;;
71303;SDS011;59091;47.446;19.148;2023-04-24T00:15:24;9.25;;;6.38;;
71303;SDS011;59091;47.446;19.148;2023-04-24T00:17:49;11.20;;;7.13;;
71303;SDS011;59091;47.446;19.148;2023-04-24T00:20:15;10.38;;;7.10;;
71303;SDS011;59091;47.446;19.148;2023-04-24T00:22:40;11.77;;;6.88;;
71303;SDS011;59091;47.446;19.148;2023-04-24T00:25:06;14.68;;;7.25;;
71303;SDS011;59091;47.446;19.148;2023-04-24T00:27:32;9.35;;;6.85;;
71303;SDS011;59091;47.446;19.148;2023-04-24T00:29:57;9.90;;;6.45;;
71303;SDS011;59091;47.446;19.148;2023-04-24T00:32:23;11.52;;;6.95;;
71303;SDS011;59091;47.446;19.148;2023-04-24T00:34:48;8.73;;;6.65;;
71303;SDS011;59091;47.446;19.148;2023-04-24T00:37:13;12.15;;;7.03;;
71303;SDS011;59091;47.446;19.148;2023-04-24T00:39:39;11.20;;;7.10;;
71303;SDS011;59091;47.446;19.148;2023-04-24T00:42:04;14.13;;;7.20;;
71303;SDS011;59091;47.446;19.148;2023-04-24T00:44:32;10.23;;;7.03;;
71303;SDS011;59091;47.446;19.148;2023-04-24T00:46:58;13.95;;;7.45;;
71303;SDS011;59091;47.446;19.148;2023-04-24T00:49:24;10.18;;;6.63;;
71303;SDS011;59091;47.446;19.148;2023-04-24T00:51:50;9.75;;;7.22;;
71303;SDS011;59091;47.446;19.148;2023-04-24T00:54:16;12.68;;;7.50;;
71303;SDS011;59091;47.446;19.148;2023-04-24T00:56:42;11.98;;;7.72;;
71303;SDS011;59091;47.446;19.148;2023-04-24T00:59:09;14.40;;;8.30;;
71303;SDS011;59091;47.446;19.148;2023-04-24T01:01:35;15.05;;;8.05;;
71303;SDS011;59091;47.446;19.148;2023-04-24T01:04:00;12.18;;;7.95;;
71303;SDS011;59091;47.446;19.148;2023-04-24T01:06:27;13.05;;;7.63;;
71303;SDS011;59091;47.446;19.148;2023-04-24T01:08:56;13.45;;;7.97;;
71303;SDS011;59091;47.446;19.148;2023-04-24T01:11:22;10.82;;;7.50;;
71303;SDS011;59091;47.446;19.148;2023-04-24T01:13:47;11.63;;;7.68;;
71303;SDS011;59091;47.446;19.148;2023-04-24T01:16:13;12.85;;;8.15;;
71303;SDS011;59091;47.446;19.148;2023-04-24T01:18:40;14.27;;;8.00;;
71303;SDS011;59091;47.446;19.148;2023-04-24T01:21:06;12.80;;;7.80;;
71303;SDS011;59091;47.446;19.148;2023-04-24T01:23:33;14.07;;;7.13;;
71303;SDS011;59091;47.446;19.148;2023-04-24T01:25:59;17.67;;;7.90;;
71303;SDS011;59091;47.446;19.148;2023-04-24T01:28:25;12.73;;;7.45;;
71303;SDS011;59091;47.446;19.148;2023-04-24T01:30:51;13.18;;;7.78;;
71303;SDS011;59091;47.446;19.148;2023-04-24T01:33:17;9.18;;;7.07;;
71303;SDS011;59091;47.446;19.148;2023-04-24T01:35:43;12.95;;;7.80;;
71303;SDS011;59091;47.446;19.148;2023-04-24T01:38:08;11.13;;;7.53;;
71303;SDS011;59091;47.446;19.148;2023-04-24T01:40:34;12.20;;;7.82;;
71303;SDS011;59091;47.446;19.148;2023-04-24T01:43:00;19.73;;;8.38;;
71303;SDS011;59091;47.446;19.148;2023-04-24T01:45:25;16.02;;;8.23;;
71303;SDS011;59091;47.446;19.148;2023-04-24T01:47:51;12.20;;;7.90;;
71303;SDS011;59091;47.446;19.148;2023-04-24T01:50:17;11.73;;;8.15;;
71303;SDS011;59091;47.446;19.148;2023-04-24T01:52:43;12.70;;;8.27;;
71303;SDS011;59091;47.446;19.148;2023-04-24T01:55:09;13.32;;;7.78;;
71303;SDS011;59091;47.446;19.148;2023-04-24T01:57:34;15.70;;;7.63;;
71303;SDS011;59091;47.446;19.148;2023-04-24T02:00:00;12.70;;;8.00;;
71303;SDS011;59091;47.446;19.148;2023-04-24T02:02:29;11.90;;;7.85;;
71303;SDS011;59091;47.446;19.148;2023-04-24T02:04:55;13.70;;;8.45;;
71303;SDS011;59091;47.446;19.148;2023-04-24T02:07:20;11.27;;;8.30;;
71303;SDS011;59091;47.446;19.148;2023-04-24T02:09:46;15.00;;;8.70;;
71303;SDS011;59091;47.446;19.148;2023-04-24T02:12:11;17.10;;;8.77;;
71303;SDS011;59091;47.446;19.148;2023-04-24T02:14:37;9.70;;;8.10;;
71303;SDS011;59091;47.446;19.148;2023-04-24T02:17:02;13.43;;;9.40;;
71303;SDS011;59091;47.446;19.148;2023-04-24T02:19:28;11.73;;;8.68;;
71303;SDS011;59091;47.446;19.148;2023-04-24T02:21:54;15.18;;;9.15;;
71303;SDS011;59091;47.446;19.148;2023-04-24T02:24:19;15.80;;;8.68;;
71303;SDS011;59091;47.446;19.148;2023-04-24T02:26:45;14.38;;;8.80;;
71303;SDS011;59091;47.446;19.148;2023-04-24T02:29:10;13.32;;;8.82;;
71303;SDS011;59091;47.446;19.148;2023-04-24T02:31:35;14.45;;;8.75;;
71303;SDS011;59091;47.446;19.148;2023-04-24T02:34:01;16.75;;;8.20;;
71303;SDS011;59091;47.446;19.148;2023-04-24T02:36:26;15.45;;;8.52;;
71303;SDS011;59091;47.446;19.148;2023-04-24T02:38:52;10.85;;;8.63;;
71303;SDS011;59091;47.446;19.148;2023-04-24T02:41:17;12.80;;;8.65;;
71303;SDS011;59091;47.446;19.148;2023-04-24T02:43:43;17.10;;;8.93;;
71303;SDS011;59091;47.446;19.148;2023-04-24T02:46:08;12.77;;;8.32;;
71303;SDS011;59091;47.446;19.148;2023-04-24T02:48:34;17.92;;;8.27;;
71303;SDS011;59091;47.446;19.148;2023-04-24T02:50:59;13.85;;;8.57;;
71303;SDS011;59091;47.446;19.148;2023-04-24T02:53:25;11.38;;;8.63;;
71303;SDS011;59091;47.446;19.148;2023-04-24T02:55:50;12.25;;;8.63;;
71303;SDS011;59091;47.446;19.148;2023-04-24T02:58:15;12.90;;;8.30;;
71303;SDS011;59091;47.446;19.148;2023-04-24T03:00:42;14.15;;;8.40;;
71303;SDS011;59091;47.446;19.148;2023-04-24T03:03:08;21.55;;;8.98;;
71303;SDS011;59091;47.446;19.148;2023-04-24T03:05:34;28.08;;;9.73;;
71303;SDS011;59091;47.446;19.148;2023-04-24T03:07:59;24.02;;;9.40;;
71303;SDS011;59091;47.446;19.148;2023-04-24T03:10:25;25.50;;;9.48;;
71303;SDS011;59091;47.446;19.148;2023-04-24T03:12:50;27.55;;;10.50;;
71303;SDS011;59091;47.446;19.148;2023-04-24T03:15:16;17.90;;;9.30;;
71303;SDS011;59091;47.446;19.148;2023-04-24T03:17:41;26.55;;;9.55;;
71303;SDS011;59091;47.446;19.148;2023-04-24T03:20:07;27.40;;;10.45;;
71303;SDS011;59091;47.446;19.148;2023-04-24T03:22:33;22.80;;;10.90;;
71303;SDS011;59091;47.446;19.148;2023-04-24T03:24:59;26.95;;;12.10;;
71303;SDS011;59091;47.446;19.148;2023-04-24T03:27:25;25.75;;;12.90;;
71303;SDS011;59091;47.446;19.148;2023-04-24T03:29:51;18.83;;;11.82;;
71303;SDS011;59091;47.446;19.148;2023-04-24T03:32:20;17.80;;;10.45;;
71303;SDS011;59091;47.446;19.148;2023-04-24T03:34:48;20.42;;;9.82;;
71303;SDS011;59091;47.446;19.148;2023-04-24T03:37:15;13.80;;;9.27;;
71303;SDS011;59091;47.446;19.148;2023-04-24T03:39:40;14.25;;;9.70;;
71303;SDS011;59091;47.446;19.148;2023-04-24T03:42:06;16.08;;;9.15;;
71303;SDS011;59091;47.446;19.148;2023-04-24T03:44:33;11.52;;;8.73;;
71303;SDS011;59091;47.446;19.148;2023-04-24T03:46:59;14.38;;;8.95;;
71303;SDS011;59091;47.446;19.148;2023-04-24T03:49:25;12.02;;;9.50;;
71303;SDS011;59091;47.446;19.148;2023-04-24T03:51:50;16.15;;;8.90;;
71303;SDS011;59091;47.446;19.148;2023-04-24T03:54:17;15.20;;;9.75;;
71303;SDS011;59091;47.446;19.148;2023-04-24T03:56:42;13.95;;;10.02;;
71303;SDS011;59091;47.446;19.148;2023-04-24T03:59:08;16.90;;;9.75;;
71303;SDS011;59091;47.446;19.148;2023-04-24T04:01:33;16.13;;;9.95;;
71303;SDS011;59091;47.446;19.148;2023-04-24T04:04:02;16.20;;;10.02;;
71303;SDS011;59091;47.446;19.148;2023-04-24T04:06:28;13.05;;;9.88;;
71303;SDS011;59091;47.446;19.148;2023-04-24T04:08:55;14.55;;;10.02;;
71303;SDS011;59091;47.446;19.148;2023-04-24T04:11:21;13.38;;;9.50;;
71303;SDS011;59091;47.446;19.148;2023-04-24T04:13:46;14.02;;;9.98;;
71303;SDS011;59091;47.446;19.148;2023-04-24T04:16:13;13.15;;;9.20;;
71303;SDS011;59091;47.446;19.148;2023-04-24T04:18:39;13.13;;;10.23;;
71303;SDS011;59091;47.446;19.148;2023-04-24T04:21:04;13.30;;;9.68;;
71303;SDS011;59091;47.446;19.148;2023-04-24T04:23:29;15.25;;;9.40;;
71303;SDS011;59091;47.446;19.148;2023-04-24T04:25:55;15.98;;;9.70;;
71303;SDS011;59091;47.446;19.148;2023-04-24T04:28:20;13.05;;;9.93;;
71303;SDS011;59091;47.446;19.148;2023-04-24T04:30:46;15.02;;;9.50;;
71303;SDS011;59091;47.446;19.148;2023-04-24T04:33:12;13.40;;;8.60;;
71303;SDS011;59091;47.446;19.148;2023-04-24T04:35:38;14.70;;;9.77;;
71303;SDS011;59091;47.446;19.148;2023-04-24T04:38:03;18.77;;;9.27;;
71303;SDS011;59091;47.446;19.148;2023-04-24T04:40:29;15.77;;;9.23;;
71303;SDS011;59091;47.446;19.148;2023-04-24T04:42:55;19.02;;;9.50;;
71303;SDS011;59091;47.446;19.148;2023-04-24T04:45:20;15.15;;;9.75;;
71303;SDS011;59091;47.446;19.148;2023-04-24T04:47:46;12.88;;;8.85;;
71303;SDS011;59091;47.446;19.148;2023-04-24T04:50:12;19.15;;;9.88;;
71303;SDS011;59091;47.446;19.148;2023-04-24T04:52:38;18.30;;;9.40;;
71303;SDS011;59091;47.446;19.148;2023-04-24T04:55:04;12.55;;;10.18;;
71303;SDS011;59091;47.446;19.148;2023-04-24T04:57:30;15.45;;;10.07;;
71303;SDS011;59091;47.446;19.148;2023-04-24T04:59:56;21.73;;;10.38;;
71303;SDS011;59091;47.446;19.148;2023-04-24T05:02:21;15.13;;;10.20;;
71303;SDS011;59091;47.446;19.148;2023-04-24T05:04:46;20.60;;;10.48;;
71303;SDS011;59091;47.446;19.148;2023-04-24T05:07:12;23.60;;;10.82;;
71303;SDS011;59091;47.446;19.148;2023-04-24T05:09:37;17.60;;;10.02;;
71303;SDS011;59091;47.446;19.148;2023-04-24T05:12:03;20.23;;;10.43;;
71303;SDS011;59091;47.446;19.148;2023-04-24T05:14:28;18.30;;;10.55;;
71303;SDS011;59091;47.446;19.148;2023-04-24T05:16:54;15.25;;;9.80;;
71303;SDS011;59091;47.446;19.148;2023-04-24T05:19:19;18.95;;;10.38;;
71303;SDS011;59091;47.446;19.148;2023-04-24T05:21:45;16.73;;;9.32;;
71303;SDS011;59091;47.446;19.148;2023-04-24T05:24:10;17.75;;;9.70;;
71303;SDS011;59091;47.446;19.148;2023-04-24T05:26:36;20.95;;;9.40;;
71303;SDS011;59091;47.446;19.148;2023-04-24T05:29:02;13.60;;;8.80;;
71303;SDS011;59091;47.446;19.148;2023-04-24T05:31:27;11.50;;;8.40;;
71303;SDS011;59091;47.446;19.148;2023-04-24T05:33:53;13.30;;;8.85;;
71303;SDS011;59091;47.446;19.148;2023-04-24T05:36:18;14.02;;;8.32;;
71303;SDS011;59091;47.446;19.148;2023-04-24T05:38:44;12.35;;;9.35;;
71303;SDS011;59091;47.446;19.148;2023-04-24T05:41:10;13.35;;;7.72;;
71303;SDS011;59091;47.446;19.148;2023-04-24T05:43:35;10.18;;;8.23;;
71303;SDS011;59091;47.446;19.148;2023-04-24T05:46:00;11.90;;;8.70;;
71303;SDS011;59091;47.446;19.148;2023-04-24T05:48:26;15.70;;;8.35;;
71303;SDS011;59091;47.446;19.148;2023-04-24T05:50:51;11.25;;;8.50;;
71303;SDS011;59091;47.446;19.148;2023-04-24T05:53:17;12.95;;;8.43;;
71303;SDS011;59091;47.446;19.148;2023-04-24T05:55:43;14.57;;;8.27;;
71303;SDS011;59091;47.446;19.148;2023-04-24T05:58:09;11.35;;;7.93;;
71303;SDS011;59091;47.446;19.148;2023-04-24T06:00:35;10.60;;;8.15;;
71303;SDS011;59091;47.446;19.148;2023-04-24T06:03:00;11.52;;;8.32;;
71303;SDS011;59091;47.446;19.148;2023-04-24T06:05:26;11.70;;;7.97;;
71303;SDS011;59091;47.446;19.148;2023-04-24T06:07:51;10.95;;;7.72;;
71303;SDS011;59091;47.446;19.148;2023-04-24T06:10:17;10.30;;;7.82;;
71303;SDS011;59091;47.446;19.148;2023-04-24T06:12:42;13.23;;;7.68;;
71303;SDS011;59091;47.446;19.148;2023-04-24T06:15:08;10.90;;;7.90;;
71303;SDS011;59091;47.446;19.148;2023-04-24T06:17:33;14.02;;;8.30;;
71303;SDS011;59091;47.446;19.148;2023-04-24T06:19:59;12.57;;;8.70;;
71303;SDS011;59091;47.446;19.148;2023-04-24T06:22:24;14.48;;;8.77;;
71303;SDS011;59091;47.446;19.148;2023-04-24T06:24:50;10.57;;;7.78;;
71303;SDS011;59091;47.446;19.148;2023-04-24T06:27:15;12.23;;;8.20;;
71303;SDS011;59091;47.446;19.148;2023-04-24T06:29:41;9.88;;;8.05;;
71303;SDS011;59091;47.446;19.148;2023-04-24T06:32:06;10.10;;;8.10;;
71303;SDS011;59091;47.446;19.148;2023-04-24T06:34:32;11.80;;;8.93;;
71303;SDS011;59091;47.446;19.148;2023-04-24T06:36:59;17.58;;;9.25;;
71303;SDS011;59091;47.446;19.148;2023-04-24T06:39:24;15.40;;;8.48;;
71303;SDS011;59091;47.446;19.148;2023-04-24T06:41:50;16.98;;;9.43;;
71303;SDS011;59091;47.446;19.148;2023-04-24T06:44:15;13.13;;;8.88;;
71303;SDS011;59091;47.446;19.148;2023-04-24T06:46:41;18.98;;;9.13;;
71303;SDS011;59091;47.446;19.148;2023-04-24T06:49:07;13.65;;;9.60;;
71303;SDS011;59091;47.446;19.148;2023-04-24T06:51:32;15.45;;;9.90;;
71303;SDS011;59091;47.446;19.148;2023-04-24T06:53:58;12.20;;;9.18;;
71303;SDS011;59091;47.446;19.148;2023-04-24T06:56:24;18.23;;;10.48;;
71303;SDS011;59091;47.446;19.148;2023-04-24T06:58:50;17.60;;;10.40;;
71303;SDS011;59091;47.446;19.148;2023-04-24T07:01:16;18.52;;;9.63;;
71303;SDS011;59091;47.446;19.148;2023-04-24T07:03:42;11.93;;;9.05;;
71303;SDS011;59091;47.446;19.148;2023-04-24T07:06:07;14.55;;;9.75;;
71303;SDS011;59091;47.446;19.148;2023-04-24T07:08:33;19.25;;;10.88;;
71303;SDS011;59091;47.446;19.148;2023-04-24T07:10:58;15.32;;;9.50;;
71303;SDS011;59091;47.446;19.148;2023-04-24T07:13:24;16.02;;;9.98;;
71303;SDS011;59091;47.446;19.148;2023-04-24T07:15:51;15.52;;;9.60;;
71303;SDS011;59091;47.446;19.148;2023-04-24T07:18:18;15.98;;;10.13;;
71303;SDS011;59091;47.446;19.148;2023-04-24T07:20:45;13.73;;;10.63;;
71303;SDS011;59091;47.446;19.148;2023-04-24T07:23:10;12.82;;;9.70;;
71303;SDS011;59091;47.446;19.148;2023-04-24T07:25:36;15.20;;;9.50;;
71303;SDS011;59091;47.446;19.148;2023-04-24T07:28:01;16.25;;;10.02;;
71303;SDS011;59091;47.446;19.148;2023-04-24T07:30:27;13.10;;;9.85;;
71303;SDS011;59091;47.446;19.148;2023-04-24T07:32:54;15.10;;;10.35;;
71303;SDS011;59091;47.446;19.148;2023-04-24T07:35:20;14.05;;;10.52;;
71303;SDS011;59091;47.446;19.148;2023-04-24T07:37:46;15.75;;;11.13;;
71303;SDS011;59091;47.446;19.148;2023-04-24T07:40:12;16.23;;;10.73;;
71303;SDS011;59091;47.446;19.148;2023-04-24T07:42:38;15.02;;;10.52;;
71303;SDS011;59091;47.446;19.148;2023-04-24T07:45:03;13.70;;;10.35;;
71303;SDS011;59091;47.446;19.148;2023-04-24T07:47:30;13.60;;;10.15;;
71303;SDS011;59091;47.446;19.148;2023-04-24T07:49:55;15.52;;;10.48;;
71303;SDS011;59091;47.446;19.148;2023-04-24T07:52:21;13.90;;;10.13;;
71303;SDS011;59091;47.446;19.148;2023-04-24T07:54:46;17.10;;;10.60;;
71303;SDS011;59091;47.446;19.148;2023-04-24T07:57:12;13.23;;;9.77;;
71303;SDS011;59091;47.446;19.148;2023-04-24T07:59:38;14.68;;;10.10;;
71303;SDS011;59091;47.446;19.148;2023-04-24T08:02:04;17.10;;;10.52;;
71303;SDS011;59091;47.446;19.148;2023-04-24T08:04:31;14.30;;;10.55;;
71303;SDS011;59091;47.446;19.148;2023-04-24T08:06:56;15.57;;;10.07;;
71303;SDS011;59091;47.446;19.148;2023-04-24T08:09:22;13.35;;;10.15;;
71303;SDS011;59091;47.446;19.148;2023-04-24T08:11:47;19.25;;;10.90;;
71303;SDS011;59091;47.446;19.148;2023-04-24T08:14:13;18.45;;;10.77;;
71303;SDS011;59091;47.446;19.148;2023-04-24T08:16:39;18.00;;;9.23;;
71303;SDS011;59091;47.446;19.148;2023-04-24T08:19:05;32.80;;;9.60;;
71303;SDS011;59091;47.446;19.148;2023-04-24T08:21:31;21.10;;;10.43;;
71303;SDS011;59091;47.446;19.148;2023-04-24T08:23:57;13.88;;;9.32;;
71303;SDS011;59091;47.446;19.148;2023-04-24T08:26:22;18.35;;;10.77;;
71303;SDS011;59091;47.446;19.148;2023-04-24T08:28:48;16.45;;;10.07;;
71303;SDS011;59091;47.446;19.148;2023-04-24T08:31:13;20.38;;;10.75;;
71303;SDS011;59091;47.446;19.148;2023-04-24T08:33:39;19.02;;;10.50;;
71303;SDS011;59091;47.446;19.148;2023-04-24T08:36:06;19.60;;;12.65;;
71303;SDS011;59091;47.446;19.148;2023-04-24T08:38:32;16.73;;;9.50;;
71303;SDS011;59091;47.446;19.148;2023-04-24T08:40:59;12.55;;;8.52;;
71303;SDS011;59091;47.446;19.148;2023-04-24T08:43:25;11.93;;;8.50;;
71303;SDS011;59091;47.446;19.148;2023-04-24T08:45:52;17.58;;;9.85;;
71303;SDS011;59091;47.446;19.148;2023-04-24T08:48:18;13.30;;;8.20;;
71303;SDS011;59091;47.446;19.148;2023-04-24T08:50:43;10.50;;;7.88;;
71303;SDS011;59091;47.446;19.148;2023-04-24T08:53:09;12.70;;;7.90;;
71303;SDS011;59091;47.446;19.148;2023-04-24T08:55:35;10.77;;;7.85;;
71303;SDS011;59091;47.446;19.148;2023-04-24T08:58:02;13.80;;;7.30;;
71303;SDS011;59091;47.446;19.148;2023-04-24T09:00:29;10.90;;;7.70;;
71303;SDS011;59091;47.446;19.148;2023-04-24T09:02:55;9.20;;;7.47;;
71303;SDS011;59091;47.446;19.148;2023-04-24T09:05:21;8.52;;;7.32;;
71303;SDS011;59091;47.446;19.148;2023-04-24T09:07:55;14.50;;;8.25;;
71303;SDS011;59091;47.446;19.148;2023-04-24T09:10:22;21.67;;;9.60;;
71303;SDS011;59091;47.446;19.148;2023-04-24T09:12:50;19.45;;;7.63;;
71303;SDS011;59091;47.446;19.148;2023-04-24T09:15:16;13.90;;;8.40;;
71303;SDS011;59091;47.446;19.148;2023-04-24T09:17:42;12.32;;;7.68;;
71303;SDS011;59091;47.446;19.148;2023-04-24T09:20:08;18.33;;;7.60;;
71303;SDS011;59091;47.446;19.148;2023-04-24T09:22:33;11.70;;;7.57;;
71303;SDS011;59091;47.446;19.148;2023-04-24T09:25:03;10.82;;;7.25;;
71303;SDS011;59091;47.446;19.148;2023-04-24T09:27:31;10.52;;;6.93;;
71303;SDS011;59091;47.446;19.148;2023-04-24T09:29:58;12.25;;;6.93;;
71303;SDS011;59091;47.446;19.148;2023-04-24T09:32:24;14.50;;;6.57;;
71303;SDS011;59091;47.446;19.148;2023-04-24T09:35:05;12.30;;;6.65;;
71303;SDS011;59091;47.446;19.148;2023-04-24T09:37:34;11.85;;;6.43;;
71303;SDS011;59091;47.446;19.148;2023-04-24T09:42:37;10.30;;;7.05;;
71303;SDS011;59091;47.446;19.148;2023-04-24T09:45:03;13.73;;;6.95;;
71303;SDS011;59091;47.446;19.148;2023-04-24T09:47:37;11.95;;;7.68;;
71303;SDS011;59091;47.446;19.148;2023-04-24T09:50:36;7.28;;;5.90;;
71303;SDS011;59091;47.446;19.148;2023-04-24T09:53:06;10.48;;;6.78;;
71303;SDS011;59091;47.446;19.148;2023-04-24T09:55:38;13.52;;;8.05;;
71303;SDS011;59091;47.446;19.148;2023-04-24T09:58:07;9.65;;;6.50;;
71303;SDS011;59091;47.446;19.148;2023-04-24T10:00:33;8.05;;;5.82;;
71303;SDS011;59091;47.446;19.148;2023-04-24T10:02:59;7.57;;;5.45;;
71303;SDS011;59091;47.446;19.148;2023-04-24T10:05:29;13.93;;;6.28;;
71303;SDS011;59091;47.446;19.148;2023-04-24T10:08:03;11.10;;;5.70;;
71303;SDS011;59091;47.446;19.148;2023-04-24T10:10:30;7.43;;;5.10;;
71303;SDS011;59091;47.446;19.148;2023-04-24T10:12:57;6.40;;;4.85;;
71303;SDS011;59091;47.446;19.148;2023-04-24T10:15:23;10.75;;;4.97;;
71303;SDS011;59091;47.446;19.148;2023-04-24T10:17:49;7.25;;;5.30;;
71303;SDS011;59091;47.446;19.148;2023-04-24T10:20:22;10.82;;;5.50;;
71303;SDS011;59091;47.446;19.148;2023-04-24T10:22:50;7.00;;;5.10;;
71303;SDS011;59091;47.446;19.148;2023-04-24T10:25:20;7.57;;;4.95;;
71303;SDS011;59091;47.446;19.148;2023-04-24T10:27:47;6.85;;;5.18;;
71303;SDS011;59091;47.446;19.148;2023-04-24T10:30:14;7.07;;;5.30;;
71303;SDS011;59091;47.446;19.148;2023-04-24T10:32:40;7.45;;;5.05;;
71303;SDS011;59091;47.446;19.148;2023-04-24T10:35:06;11.63;;;4.95;;
71303;SDS011;59091;47.446;19.148;2023-04-24T10:37:40;7.32;;;5.60;;
71303;SDS011;59091;47.446;19.148;2023-04-24T10:40:10;9.32;;;6.15;;
71303;SDS011;59091;47.446;19.148;2023-04-24T10:42:39;10.18;;;6.57;;
71303;SDS011;59091;47.446;19.148;2023-04-24T10:45:21;7.18;;;5.68;;
71303;SDS011;59091;47.446;19.148;2023-04-24T10:47:51;14.48;;;6.28;;
71303;SDS011;59091;47.446;19.148;2023-04-24T10:50:17;11.32;;;6.43;;
71303;SDS011;59091;47.446;19.148;2023-04-24T10:52:43;9.50;;;6.82;;
71303;SDS011;59091;47.446;19.148;2023-04-24T10:55:10;10.65;;;7.07;;
71303;SDS011;59091;47.446;19.148;2023-04-24T10:57:38;7.60;;;5.65;;
71303;SDS011;59091;47.446;19.148;2023-04-24T11:00:13;9.35;;;5.55;;
71303;SDS011;59091;47.446;19.148;2023-04-24T11:02:46;9.13;;;5.57;;
71303;SDS011;59091;47.446;19.148;2023-04-24T11:05:15;11.60;;;6.30;;
71303;SDS011;59091;47.446;19.148;2023-04-24T11:10:44;12.95;;;6.00;;
71303;SDS011;59091;47.446;19.148;2023-04-24T11:13:23;6.55;;;5.45;;
71303;SDS011;59091;47.446;19.148;2023-04-24T11:18:45;8.43;;;6.30;;
71303;SDS011;59091;47.446;19.148;2023-04-24T11:21:11;8.30;;;6.10;;
71303;SDS011;59091;47.446;19.148;2023-04-24T11:23:37;10.73;;;5.90;;
71303;SDS011;59091;47.446;19.148;2023-04-24T11:26:13;10.55;;;6.38;;
71303;SDS011;59091;47.446;19.148;2023-04-24T11:28:44;13.95;;;6.88;;
71303;SDS011;59091;47.446;19.148;2023-04-24T11:31:33;12.23;;;5.90;;
71303;SDS011;59091;47.446;19.148;2023-04-24T11:34:07;7.95;;;6.30;;
71303;SDS011;59091;47.446;19.148;2023-04-24T11:36:32;9.07;;;6.30;;
71303;SDS011;59091;47.446;19.148;2023-04-24T11:38:59;11.10;;;6.30;;
71303;SDS011;59091;47.446;19.148;2023-04-24T11:41:26;11.90;;;7.05;;
71303;SDS011;59091;47.446;19.148;2023-04-24T11:43:52;9.38;;;6.45;;
71303;SDS011;59091;47.446;19.148;2023-04-24T11:46:20;10.23;;;6.70;;
71303;SDS011;59091;47.446;19.148;2023-04-24T11:48:46;13.25;;;7.05;;
71303;SDS011;59091;47.446;19.148;2023-04-24T11:51:12;16.42;;;7.65;;
71303;SDS011;59091;47.446;19.148;2023-04-24T11:53:38;21.25;;;7.30;;
71303;SDS011;59091;47.446;19.148;2023-04-24T11:56:04;10.60;;;7.47;;
71303;SDS011;59091;47.446;19.148;2023-04-24T11:58:34;17.17;;;7.53;;
71303;SDS011;59091;47.446;19.148;2023-04-24T12:01:01;11.63;;;7.03;;
71303;SDS011;59091;47.446;19.148;2023-04-24T12:03:26;10.30;;;6.82;;
71303;SDS011;59091;47.446;19.148;2023-04-24T12:05:52;9.45;;;6.95;;
71303;SDS011;59091;47.446;19.148;2023-04-24T12:08:27;10.30;;;7.40;;
71303;SDS011;59091;47.446;19.148;2023-04-24T12:10:53;11.10;;;8.00;;
71303;SDS011;59091;47.446;19.148;2023-04-24T12:13:19;9.82;;;7.25;;
71303;SDS011;59091;47.446;19.148;2023-04-24T12:15:44;11.75;;;6.13;;
71303;SDS011;59091;47.446;19.148;2023-04-24T12:18:11;9.38;;;5.78;;
71303;SDS011;59091;47.446;19.148;2023-04-24T12:20:37;8.85;;;5.10;;
71303;SDS011;59091;47.446;19.148;2023-04-24T12:23:03;10.90;;;5.25;;
71303;SDS011;59091;47.446;19.148;2023-04-24T12:25:29;9.45;;;5.22;;
71303;SDS011;59091;47.446;19.148;2023-04-24T12:30:31;14.35;;;5.90;;
71303;SDS011;59091;47.446;19.148;2023-04-24T12:32:59;9.13;;;6.10;;
71303;SDS011;59091;47.446;19.148;2023-04-24T12:35:29;15.52;;;6.43;;
71303;SDS011;59091;47.446;19.148;2023-04-24T12:38:05;15.50;;;6.68;;
71303;SDS011;59091;47.446;19.148;2023-04-24T12:40:31;11.05;;;6.63;;
71303;SDS011;59091;47.446;19.148;2023-04-24T12:42:57;14.32;;;6.07;;
71303;SDS011;59091;47.446;19.148;2023-04-24T12:45:22;11.05;;;5.88;;
71303;SDS011;59091;47.446;19.148;2023-04-24T12:47:48;12.95;;;5.82;;
71303;SDS011;59091;47.446;19.148;2023-04-24T12:50:14;8.45;;;4.60;;
71303;SDS011;59091;47.446;19.148;2023-04-24T12:52:40;14.18;;;5.28;;
71303;SDS011;59091;47.446;19.148;2023-04-24T12:55:07;12.77;;;5.20;;
71303;SDS011;59091;47.446;19.148;2023-04-24T12:57:34;6.78;;;4.55;;
71303;SDS011;59091;47.446;19.148;2023-04-24T13:00:00;11.18;;;4.25;;
71303;SDS011;59091;47.446;19.148;2023-04-24T13:02:27;9.52;;;3.80;;
71303;SDS011;59091;47.446;19.148;2023-04-24T13:04:55;6.65;;;4.00;;
71303;SDS011;59091;47.446;19.148;2023-04-24T13:07:20;3.83;;;3.42;;
71303;SDS011;59091;47.446;19.148;2023-04-24T13:09:47;5.68;;;3.75;;
71303;SDS011;59091;47.446;19.148;2023-04-24T13:12:13;13.38;;;3.47;;
71303;SDS011;59091;47.446;19.148;2023-04-24T13:14:39;10.25;;;3.30;;
71303;SDS011;59091;47.446;19.148;2023-04-24T13:17:05;7.03;;;3.13;;
71303;SDS011;59091;47.446;19.148;2023-04-24T13:19:35;4.28;;;3.08;;
71303;SDS011;59091;47.446;19.148;2023-04-24T13:22:04;4.10;;;3.20;;
71303;SDS011;59091;47.446;19.148;2023-04-24T13:24:30;3.90;;;3.13;;
71303;SDS011;59091;47.446;19.148;2023-04-24T13:26:56;7.65;;;3.15;;
71303;SDS011;59091;47.446;19.148;2023-04-24T13:29:23;6.15;;;3.47;;
71303;SDS011;59091;47.446;19.148;2023-04-24T13:31:52;6.70;;;3.22;;
71303;SDS011;59091;47.446;19.148;2023-04-24T13:34:24;3.55;;;3.25;;
71303;SDS011;59091;47.446;19.148;2023-04-24T13:36:54;4.00;;;3.20;;
71303;SDS011;59091;47.446;19.148;2023-04-24T13:39:21;6.13;;;2.95;;
71303;SDS011;59091;47.446;19.148;2023-04-24T13:41:48;3.42;;;3.00;;
71303;SDS011;59091;47.446;19.148;2023-04-24T13:44:14;4.95;;;3.40;;
71303;SDS011;59091;47.446;19.148;2023-04-24T13:46:44;5.10;;;3.20;;
71303;SDS011;59091;47.446;19.148;2023-04-24T13:49:14;5.18;;;3.50;;
71303;SDS011;59091;47.446;19.148;2023-04-24T13:51:40;9.80;;;3.90;;
71303;SDS011;59091;47.446;19.148;2023-04-24T13:54:06;5.22;;;3.67;;
71303;SDS011;59091;47.446;19.148;2023-04-24T13:56:32;4.55;;;3.75;;
71303;SDS011;59091;47.446;19.148;2023-04-24T13:58:58;4.22;;;3.45;;
71303;SDS011;59091;47.446;19.148;2023-04-24T14:01:23;5.82;;;3.88;;
71303;SDS011;59091;47.446;19.148;2023-04-24T14:03:53;7.40;;;3.97;;
71303;SDS011;59091;47.446;19.148;2023-04-24T14:06:21;5.57;;;3.25;;
71303;SDS011;59091;47.446;19.148;2023-04-24T14:08:47;18.95;;;3.97;;
71303;SDS011;59091;47.446;19.148;2023-04-24T14:11:12;10.07;;;3.97;;
71303;SDS011;59091;47.446;19.148;2023-04-24T14:13:40;4.65;;;3.38;;
71303;SDS011;59091;47.446;19.148;2023-04-24T14:16:06;7.57;;;3.45;;
71303;SDS011;59091;47.446;19.148;2023-04-24T14:18:32;5.40;;;3.25;;
71303;SDS011;59091;47.446;19.148;2023-04-24T14:20:57;5.28;;;3.75;;
71303;SDS011;59091;47.446;19.148;2023-04-24T14:23:23;5.57;;;3.78;;
71303;SDS011;59091;47.446;19.148;2023-04-24T14:25:48;5.53;;;4.22;;
71303;SDS011;59091;47.446;19.148;2023-04-24T14:28:17;4.18;;;3.53;;
71303;SDS011;59091;47.446;19.148;2023-04-24T14:30:43;7.97;;;3.80;;